Time,TemperatureF,DewpointF,PressureIn,WindDirection,WindDirectionDegrees,WindSpeedMPH,WindSpeedGustMPH,Humidity,HourlyPrecipIn,Conditions,Clouds,dailyrainin,SoftwareType,DateUTC
2013-03-09 00:06:00,29.4,25.0,30.40,NE,56,3.0,3.0,83,0.00,,,0.03,weatherlink.com 1.10,2013-03-09 05:06:00,
2013-03-09 00:21:00,29.6,25.0,30.39,East,82,0.0,3.0,82,0.00,,,0.00,weatherlink.com 1.10,2013-03-09 05:21:00,
2013-03-09 00:36:00,29.8,25.0,30.38,ENE,63,1.0,3.0,82,0.00,,,0.00,weatherlink.com 1.10,2013-03-09 05:36:00,
2013-03-09 00:51:00,29.8,25.0,30.38,East,100,2.0,2.0,82,0.00,,,0.00,weatherlink.com 1.10,2013-03-09 05:51:00,
2013-03-09 01:06:00,29.6,25.0,30.38,East,93,1.0,2.0,82,0.00,,,0.00,weatherlink.com 1.10,2013-03-09 06:06:00,
2013-03-09 01:21:00,29.6,25.0,30.37,NE,50,2.0,3.0,82,0.00,,,0.00,weatherlink.com 1.10,2013-03-09 06:21:00,
2013-03-09 01:36:00,29.5,25.0,30.37,ESE,117,1.0,2.0,82,0.00,,,0.00,weatherlink.com 1.10,2013-03-09 06:36:00,
2013-03-09 01:51:00,29.7,25.0,30.37,East,97,0.0,3.0,82,0.00,,,0.00,weatherlink.com 1.10,2013-03-09 06:51:00,
2013-03-09 02:06:00,29.9,25.0,30.36,NE,41,1.0,3.0,82,0.00,,,0.00,weatherlink.com 1.10,2013-03-09 07:06:00,
2013-03-09 02:21:00,30.4,25.0,30.35,ENE,65,0.0,3.0,81,0.00,,,0.00,weatherlink.com 1.10,2013-03-09 07:21:00,
2013-03-09 02:36:00,30.8,26.0,30.35,East,83,2.0,5.0,81,0.00,,,0.00,weatherlink.com 1.10,2013-03-09 07:36:00,
2013-03-09 02:51:00,30.9,26.0,30.35,ENE,69,2.0,2.0,81,0.00,,,0.00,weatherlink.com 1.10,2013-03-09 07:51:00,
2013-03-09 03:06:00,30.8,26.0,30.34,ENE,77,1.0,3.0,82,0.00,,,0.00,weatherlink.com 1.10,2013-03-09 08:06:00,
2013-03-09 03:21:00,30.7,26.0,30.33,East,91,1.0,2.0,82,0.00,,,0.00,weatherlink.com 1.10,2013-03-09 08:21:00,
2013-03-09 03:36:00,30.6,26.0,30.34,SE,141,1.0,2.0,83,0.00,,,0.00,weatherlink.com 1.10,2013-03-09 08:36:00,
2013-03-09 03:51:00,30.7,26.0,30.32,ENE,75,0.0,3.0,83,0.00,,,0.00,weatherlink.com 1.10,2013-03-09 08:51:00,
2013-03-09 04:06:00,30.6,26.0,30.31,ESE,113,0.0,4.0,83,0.00,,,0.00,weatherlink.com 1.10,2013-03-09 09:06:00,
2013-03-09 04:21:00,30.6,26.0,30.31,East,79,3.0,4.0,84,0.00,,,0.00,weatherlink.com 1.10,2013-03-09 09:21:00,
2013-03-09 04:36:00,30.7,26.0,30.30,ENE,75,2.0,4.0,84,0.00,,,0.00,weatherlink.com 1.10,2013-03-09 09:36:00,
2013-03-09 04:51:00,31.0,27.0,30.31,ENE,70,1.0,4.0,84,0.00,,,0.00,weatherlink.com 1.10,2013-03-09 09:51:00,
2013-03-09 05:06:00,31.3,27.0,30.31,NE,51,2.0,6.0,84,0.00,,,0.00,weatherlink.com 1.10,2013-03-09 10:06:00,
2013-03-09 05:21:00,31.5,27.0,30.31,NE,55,3.0,5.0,84,0.00,,,0.00,weatherlink.com 1.10,2013-03-09 10:21:00,
2013-03-09 05:36:00,31.5,27.0,30.30,ENE,77,1.0,6.0,84,0.00,,,0.00,weatherlink.com 1.10,2013-03-09 10:36:00,
2013-03-09 05:51:00,31.4,27.0,30.31,East,101,0.0,4.0,84,0.00,,,0.00,weatherlink.com 1.10,2013-03-09 10:51:00,
2013-03-09 06:06:00,31.2,27.0,30.30,ENE,60,4.0,5.0,85,0.00,,,0.00,weatherlink.com 1.10,2013-03-09 11:06:00,
2013-03-09 06:21:00,31.2,27.0,30.29,NE,49,2.0,4.0,85,0.00,,,0.00,weatherlink.com 1.10,2013-03-09 11:21:00,
2013-03-09 06:36:00,31.3,27.0,30.28,East,82,2.0,7.0,85,0.00,,,0.00,weatherlink.com 1.10,2013-03-09 11:36:00,
2013-03-09 06:51:00,31.6,27.0,30.28,ENE,61,2.0,6.0,84,0.00,,,0.00,weatherlink.com 1.10,2013-03-09 11:51:00,
2013-03-09 07:07:00,32.0,28.0,30.29,ENE,68,1.0,5.0,84,0.00,,,0.00,weatherlink.com 1.10,2013-03-09 12:07:00,
2013-03-09 07:22:00,32.4,28.0,30.29,ESE,123,2.0,7.0,83,0.00,,,0.00,weatherlink.com 1.10,2013-03-09 12:22:00,
2013-03-09 07:37:00,33.2,28.0,30.29,ESE,107,1.0,4.0,82,0.00,,,0.00,weatherlink.com 1.10,2013-03-09 12:37:00,
2013-03-09 07:52:00,33.3,28.0,30.29,SE,141,3.0,5.0,82,0.00,,,0.00,weatherlink.com 1.10,2013-03-09 12:52:00,
2013-03-09 08:07:00,34.0,29.0,30.29,ESE,111,1.0,6.0,82,0.00,,,0.00,weatherlink.com 1.10,2013-03-09 13:07:00,
2013-03-09 08:22:00,34.8,29.0,30.29,ESE,110,1.0,6.0,80,0.00,,,0.00,weatherlink.com 1.10,2013-03-09 13:22:00,
2013-03-09 08:37:00,35.0,29.0,30.29,SE,129,2.0,6.0,79,0.00,,,0.00,weatherlink.com 1.10,2013-03-09 13:37:00,
2013-03-09 08:52:00,35.5,30.0,30.30,SSE,148,3.0,7.0,79,0.00,,,0.00,weatherlink.com 1.10,2013-03-09 13:52:00,
2013-03-09 09:07:00,36.0,30.0,30.30,SE,129,1.0,5.0,78,0.00,,,0.00,weatherlink.com 1.10,2013-03-09 14:07:00,
2013-03-09 09:22:00,36.8,30.0,30.30,SE,132,1.0,3.0,77,0.00,,,0.00,weatherlink.com 1.10,2013-03-09 14:22:00,
2013-03-09 09:37:00,37.6,30.0,30.29,East,94,2.0,6.0,75,0.00,,,0.00,weatherlink.com 1.10,2013-03-09 14:37:00,
2013-03-09 09:52:00,38.5,31.0,30.29,SE,141,5.0,9.0,73,0.00,,,0.00,weatherlink.com 1.10,2013-03-09 14:52:00,
2013-03-09 10:07:00,40.9,32.0,30.29,ESE,105,3.0,8.0,71,0.00,,,0.00,weatherlink.com 1.10,2013-03-09 15:07:00,
2013-03-09 10:22:00,41.1,32.0,30.27,ENE,78,1.0,9.0,69,0.00,,,0.00,weatherlink.com 1.10,2013-03-09 15:22:00,
2013-03-09 10:37:00,41.3,31.0,30.27,East,83,6.0,10.0,68,0.00,,,0.00,weatherlink.com 1.10,2013-03-09 15:37:00,
2013-03-09 10:52:00,42.7,32.0,30.27,SE,145,8.0,10.0,67,0.00,,,0.00,weatherlink.com 1.10,2013-03-09 15:52:00,
2013-03-09 11:07:00,43.4,32.0,30.27,East,79,3.0,11.0,65,0.00,,,0.00,weatherlink.com 1.10,2013-03-09 16:07:00,
2013-03-09 11:22:00,43.8,32.0,30.26,South,169,3.0,7.0,64,0.00,,,0.00,weatherlink.com 1.10,2013-03-09 16:22:00,
2013-03-09 11:37:00,44.0,32.0,30.26,East,97,5.0,9.0,64,0.00,,,0.00,weatherlink.com 1.10,2013-03-09 16:37:00,
2013-03-09 11:52:00,44.6,33.0,30.25,ENE,77,2.0,10.0,63,0.00,,,0.00,weatherlink.com 1.10,2013-03-09 16:52:00,
2013-03-09 12:07:00,44.8,32.0,30.25,ESE,121,4.0,9.0,62,0.00,,,0.00,weatherlink.com 1.10,2013-03-09 17:07:00,
2013-03-09 12:23:00,45.2,33.0,30.24,SSE,148,2.0,8.0,62,0.00,,,0.00,weatherlink.com 1.10,2013-03-09 17:23:00,
2013-03-09 12:38:00,45.1,33.0,30.22,South,186,1.0,9.0,62,0.00,,,0.00,weatherlink.com 1.10,2013-03-09 17:38:00,
2013-03-09 12:53:00,45.7,33.0,30.22,ESE,118,2.0,11.0,61,0.00,,,0.00,weatherlink.com 1.10,2013-03-09 17:53:00,
2013-03-09 13:08:00,46.3,33.0,30.21,East,80,2.0,6.0,61,0.00,,,0.00,weatherlink.com 1.10,2013-03-09 18:08:00,
2013-03-09 13:23:00,46.5,34.0,30.20,East,90,1.0,12.0,62,0.00,,,0.00,weatherlink.com 1.10,2013-03-09 18:23:00,
2013-03-09 13:38:00,47.5,34.0,30.18,ENE,63,3.0,14.0,60,0.00,,,0.00,weatherlink.com 1.10,2013-03-09 18:38:00,
2013-03-09 13:53:00,47.9,35.0,30.17,East,87,3.0,11.0,61,0.00,,,0.00,weatherlink.com 1.10,2013-03-09 18:53:00,
2013-03-09 14:08:00,47.9,35.0,30.16,NE,44,4.0,9.0,61,0.00,,,0.00,weatherlink.com 1.10,2013-03-09 19:08:00,
2013-03-09 14:23:00,47.4,35.0,30.16,SE,143,2.0,10.0,62,0.00,,,0.00,weatherlink.com 1.10,2013-03-09 19:23:00,
2013-03-09 14:38:00,48.7,36.0,30.15,South,177,4.0,8.0,61,0.00,,,0.00,weatherlink.com 1.10,2013-03-09 19:38:00,
2013-03-09 14:53:00,48.5,35.0,30.14,ENE,70,1.0,10.0,60,0.00,,,0.00,weatherlink.com 1.10,2013-03-09 19:53:00,
2013-03-09 15:08:00,48.5,35.0,30.14,ESE,111,2.0,7.0,61,0.00,,,0.00,weatherlink.com 1.10,2013-03-09 20:08:00,
2013-03-09 15:23:00,47.5,36.0,30.13,ENE,70,2.0,7.0,64,0.00,,,0.00,weatherlink.com 1.10,2013-03-09 20:23:00,
2013-03-09 15:38:00,47.0,36.0,30.13,SE,131,5.0,7.0,65,0.00,,,0.00,weatherlink.com 1.10,2013-03-09 20:38:00,
2013-03-09 15:53:00,46.7,36.0,30.12,ESE,105,2.0,6.0,67,0.00,,,0.00,weatherlink.com 1.10,2013-03-09 20:53:00,
2013-03-09 16:08:00,46.5,36.0,30.11,SE,144,4.0,9.0,68,0.00,,,0.00,weatherlink.com 1.10,2013-03-09 21:08:00,
2013-03-09 16:23:00,46.8,37.0,30.10,East,91,5.0,10.0,68,0.00,,,0.00,weatherlink.com 1.10,2013-03-09 21:23:00,
2013-03-09 16:38:00,47.2,37.0,30.09,ENE,57,2.0,8.0,67,0.00,,,0.00,weatherlink.com 1.10,2013-03-09 21:38:00,
2013-03-09 16:53:00,47.4,37.0,30.08,ENE,69,1.0,5.0,68,0.00,,,0.00,weatherlink.com 1.10,2013-03-09 21:53:00,
2013-03-09 17:08:00,47.3,37.0,30.08,South,173,1.0,6.0,68,0.00,,,0.00,weatherlink.com 1.10,2013-03-09 22:08:00,
2013-03-09 17:23:00,47.3,38.0,30.08,SE,143,2.0,5.0,69,0.00,,,0.00,weatherlink.com 1.10,2013-03-09 22:23:00,
2013-03-09 17:38:00,47.3,38.0,30.08,East,79,4.0,7.0,69,0.00,,,0.00,weatherlink.com 1.10,2013-03-09 22:38:00,
2013-03-09 17:53:00,47.4,37.0,30.08,SSE,155,3.0,7.0,68,0.00,,,0.00,weatherlink.com 1.10,2013-03-09 22:53:00,
2013-03-09 18:08:00,47.4,37.0,30.08,SE,135,1.0,7.0,68,0.00,,,0.00,weatherlink.com 1.10,2013-03-09 23:08:00,
2013-03-09 18:23:00,47.2,37.0,30.07,ESE,115,0.0,5.0,68,0.00,,,0.00,weatherlink.com 1.10,2013-03-09 23:23:00,
2013-03-09 18:38:00,47.0,37.0,30.07,SE,124,0.0,5.0,69,0.00,,,0.00,weatherlink.com 1.10,2013-03-09 23:38:00,
2013-03-09 18:53:00,46.9,37.0,30.06,SE,139,1.0,5.0,69,0.00,,,0.00,weatherlink.com 1.10,2013-03-09 23:53:00,
2013-03-09 19:08:00,46.7,37.0,30.06,SE,128,4.0,6.0,69,0.00,,,0.00,weatherlink.com 1.10,2013-03-10 00:08:00,
2013-03-09 19:23:00,46.8,37.0,30.05,East,89,1.0,5.0,68,0.00,,,0.00,weatherlink.com 1.10,2013-03-10 00:23:00,
2013-03-09 19:38:00,46.9,37.0,30.05,East,84,1.0,5.0,68,0.00,,,0.00,weatherlink.com 1.10,2013-03-10 00:38:00,
2013-03-09 19:53:00,47.5,37.0,30.04,SE,132,6.0,8.0,66,0.00,,,0.00,weatherlink.com 1.10,2013-03-10 00:53:00,
2013-03-09 20:08:00,47.6,37.0,30.05,South,169,1.0,7.0,66,0.00,,,0.00,weatherlink.com 1.10,2013-03-10 01:08:00,
2013-03-09 20:23:00,47.7,36.0,30.05,ESE,117,2.0,6.0,65,0.00,,,0.00,weatherlink.com 1.10,2013-03-10 01:23:00,
2013-03-09 20:39:00,47.5,37.0,30.03,SE,139,3.0,7.0,66,0.00,,,0.00,weatherlink.com 1.10,2013-03-10 01:39:00,
2013-03-09 20:54:00,47.5,37.0,30.02,ENE,74,1.0,6.0,66,0.00,,,0.00,weatherlink.com 1.10,2013-03-10 01:54:00,
2013-03-09 21:09:00,47.8,37.0,30.02,NE,55,4.0,6.0,66,0.00,,,0.00,weatherlink.com 1.10,2013-03-10 02:09:00,
2013-03-09 21:24:00,47.9,37.0,30.01,ENE,78,3.0,8.0,65,0.00,,,0.00,weatherlink.com 1.10,2013-03-10 02:24:00,
2013-03-09 21:39:00,48.4,37.0,30.01,South,176,4.0,8.0,65,0.00,,,0.00,weatherlink.com 1.10,2013-03-10 02:39:00,
2013-03-09 21:54:00,48.0,37.0,30.01,NW,323,1.0,6.0,65,0.00,,,0.00,weatherlink.com 1.10,2013-03-10 02:54:00,
2013-03-09 22:09:00,47.9,37.0,30.00,SE,131,1.0,7.0,65,0.00,,,0.00,weatherlink.com 1.10,2013-03-10 03:09:00,
2013-03-09 22:24:00,47.7,36.0,30.00,SSW,197,2.0,6.0,65,0.00,,,0.00,weatherlink.com 1.10,2013-03-10 03:24:00,
2013-03-09 22:39:00,47.9,36.0,29.99,SSE,162,4.0,6.0,64,0.00,,,0.00,weatherlink.com 1.10,2013-03-10 03:39:00,
2013-03-09 22:54:00,47.9,37.0,29.99,East,82,2.0,5.0,65,0.00,,,0.00,weatherlink.com 1.10,2013-03-10 03:54:00,
2013-03-09 23:09:00,48.0,37.0,29.99,ESE,111,1.0,6.0,65,0.00,,,0.00,weatherlink.com 1.10,2013-03-10 04:09:00,
2013-03-09 23:24:00,48.5,37.0,29.98,NE,39,4.0,7.0,64,0.00,,,0.00,weatherlink.com 1.10,2013-03-10 04:24:00,
2013-03-09 23:39:00,49.0,37.0,29.97,ESE,121,1.0,7.0,63,0.00,,,0.00,weatherlink.com 1.10,2013-03-10 04:39:00,
2013-03-09 23:54:00,49.4,37.0,29.97,SSE,161,1.0,9.0,62,0.00,,,0.00,weatherlink.com 1.10,2013-03-10 04:54:00,